createdAt,value
2018-11-26T00:01:15.032Z,6.30
2018-11-26T00:03:44.021Z,6.30
2018-11-26T00:06:12.481Z,6.40
2018-11-26T00:08:41.611Z,6.40
2018-11-26T00:11:21.321Z,6.30
2018-11-26T00:13:50.313Z,6.30
2018-11-26T00:16:18.735Z,6.40
2018-11-26T00:18:47.160Z,6.40
2018-11-26T00:34:01.349Z,6.40
2018-11-26T02:15:43.012Z,6.00
2018-11-26T02:18:11.658Z,6.00
2018-11-26T02:20:40.109Z,6.00
2018-11-26T02:23:08.588Z,6.00
2018-11-26T02:25:37.121Z,6.00
2018-11-26T02:28:05.871Z,6.00
2018-11-26T02:30:34.302Z,6.00
2018-11-26T02:33:02.724Z,6.00
2018-11-26T02:35:31.122Z,6.00
2018-11-26T02:37:59.547Z,6.00
2018-11-26T02:40:29.138Z,6.00
2018-11-26T02:42:59.324Z,6.10
2018-11-26T02:45:28.825Z,6.10
2018-11-26T02:47:57.316Z,6.10
2018-11-26T02:50:25.713Z,6.20
2018-11-26T02:52:54.111Z,6.30
2018-11-26T02:55:22.654Z,6.30
2018-11-26T02:57:51.186Z,6.30
2018-11-26T03:00:19.969Z,6.30
2018-11-26T03:02:48.401Z,6.30
2018-11-26T03:05:25.679Z,6.30
2018-11-26T03:07:54.147Z,6.40
2018-11-26T03:10:22.781Z,6.40
2018-11-26T03:12:51.313Z,6.30
2018-11-26T03:15:19.814Z,6.40
2018-11-26T03:17:48.231Z,6.40
2018-11-26T03:20:16.631Z,6.40
2018-11-26T03:22:45.049Z,6.40
2018-11-26T03:25:13.807Z,6.40
2018-11-26T03:28:02.331Z,6.40
2018-11-26T03:30:30.747Z,6.40
2018-11-26T03:32:59.159Z,6.30
2018-11-26T03:35:27.571Z,6.30
2018-11-26T03:37:55.983Z,6.20
2018-11-26T03:40:24.397Z,6.20
2018-11-26T03:42:52.883Z,6.20
2018-11-26T03:45:21.352Z,6.30
2018-11-26T03:47:49.757Z,6.30
2018-11-26T03:50:18.187Z,6.30
2018-11-26T03:52:46.639Z,6.30
2018-11-26T03:55:15.062Z,6.30
2018-11-26T03:57:43.541Z,6.30
2018-11-26T04:00:16.313Z,6.30
2018-11-26T04:02:44.783Z,6.30
2018-11-26T04:05:13.409Z,6.30
2018-11-26T04:07:41.902Z,6.30
2018-11-26T04:10:11.521Z,6.30
2018-11-26T04:12:40.007Z,6.30
2018-11-26T04:15:11.152Z,6.20
2018-11-26T04:17:39.638Z,6.20
2018-11-26T04:20:08.836Z,6.10
2018-11-26T04:22:37.346Z,6.10
2018-11-26T04:25:07.130Z,6.00
2018-11-26T06:37:42.719Z,5.90
2018-11-26T06:40:11.962Z,5.70
2018-11-26T06:42:40.438Z,5.70
2018-11-26T06:45:14.371Z,5.80
2018-11-26T06:47:42.915Z,5.80
2018-11-26T06:50:12.580Z,5.80
2018-11-26T06:52:40.958Z,5.80
2018-11-26T06:55:11.172Z,5.80
2018-11-26T06:57:39.634Z,6.40
2018-11-26T07:00:10.823Z,6.30
2018-11-26T07:02:39.338Z,6.20
2018-11-26T07:05:10.218Z,6.20
2018-11-26T07:07:38.630Z,6.20
2018-11-26T07:10:21.027Z,6.10
2018-11-26T07:12:49.605Z,6.10
2018-11-26T07:15:19.551Z,6.10
2018-11-26T07:17:47.955Z,6.10
2018-11-26T07:20:18.166Z,6.10
2018-11-26T07:22:46.636Z,6.10
2018-11-26T07:25:16.435Z,6.10
2018-11-26T07:27:47.045Z,6.00
2018-11-26T07:30:18.361Z,6.00
2018-11-26T07:32:46.773Z,6.00
2018-11-26T07:35:15.729Z,6.10
2018-11-26T07:37:44.543Z,6.10
2018-11-26T07:40:19.859Z,6.00
2018-11-26T07:42:51.697Z,6.10
2018-11-26T07:45:21.053Z,6.10
2018-11-26T07:47:49.488Z,6.10
2018-11-26T07:50:18.900Z,6.10
2018-11-26T07:52:47.960Z,6.10
2018-11-26T07:55:19.505Z,6.20
2018-11-26T07:57:47.968Z,6.20
2018-11-26T08:00:18.157Z,6.20
2018-11-26T08:02:46.970Z,6.20
2018-11-26T08:05:17.527Z,6.20
2018-11-26T08:07:45.899Z,6.20
2018-11-26T08:10:15.453Z,6.20
2018-11-26T08:12:44.450Z,6.20
2018-11-26T08:15:18.620Z,6.30
2018-11-26T08:17:47.155Z,6.30
2018-11-26T08:20:15.544Z,6.30
2018-11-26T08:22:43.966Z,6.30
2018-11-26T08:25:14.635Z,6.40
2018-11-26T08:27:44.334Z,6.40
2018-11-26T08:30:17.643Z,6.40
2018-11-26T08:32:48.345Z,6.50
2018-11-26T08:35:17.521Z,6.50
2018-11-26T08:37:51.247Z,6.50
2018-11-26T08:40:25.266Z,6.50
2018-11-26T08:44:01.574Z,6.60
2018-11-26T08:46:32.573Z,6.50
2018-11-26T08:49:25.037Z,6.60
2018-11-26T08:51:54.485Z,6.60
2018-11-26T08:54:22.915Z,6.50
2018-11-26T08:56:52.015Z,6.50
2018-11-26T08:59:20.477Z,6.50
2018-11-26T09:01:51.323Z,6.50
2018-11-26T09:04:23.377Z,6.50
2018-11-26T09:06:51.763Z,6.50
2018-11-26T09:09:20.121Z,6.40
2018-11-26T09:11:48.565Z,6.50
2018-11-26T09:14:17.031Z,6.40
2018-11-26T09:16:45.439Z,6.40
2018-11-26T09:19:13.983Z,6.50
2018-11-26T09:21:42.397Z,6.50
2018-11-26T09:24:10.795Z,6.50
2018-11-26T09:26:39.200Z,6.50
2018-11-26T09:29:07.561Z,6.50
2018-11-26T09:31:35.927Z,6.50
2018-11-26T11:23:39.926Z,6.90
2018-11-26T11:26:08.364Z,6.90
2018-11-26T11:28:36.787Z,6.90
2018-11-26T11:31:05.785Z,6.90
2018-11-26T11:33:34.177Z,6.90
2018-11-26T11:36:02.627Z,6.90
2018-11-26T11:38:31.053Z,7.00
2018-11-26T11:40:59.413Z,7.00
2018-11-26T11:43:27.866Z,7.00
2018-11-26T11:45:56.249Z,7.00
2018-11-26T11:48:24.699Z,7.00
2018-11-26T11:50:53.114Z,7.00
2018-11-26T11:53:21.549Z,7.00
2018-11-26T11:55:49.940Z,7.00
2018-11-26T11:58:18.356Z,7.00
2018-11-26T12:00:48.103Z,7.00
2018-11-26T12:03:17.848Z,7.00
2018-11-26T12:05:46.348Z,7.10
2018-11-26T12:08:14.911Z,7.00
2018-11-26T12:10:43.449Z,7.00
2018-11-26T12:13:13.167Z,7.00
2018-11-26T12:15:44.718Z,7.10
2018-11-26T12:18:14.721Z,7.10
2018-11-26T12:20:43.383Z,7.10
2018-11-26T12:23:12.318Z,7.10
2018-11-26T12:25:40.763Z,7.00
2018-11-26T12:28:09.181Z,7.10
2018-11-26T12:30:39.452Z,7.00
2018-11-26T12:33:08.077Z,7.00
2018-11-26T12:35:36.797Z,7.00
2018-11-26T12:38:05.467Z,7.10
2018-11-26T12:40:33.940Z,7.10
2018-11-26T12:43:03.393Z,7.10
2018-11-26T12:45:33.525Z,7.10
2018-11-26T12:48:02.301Z,7.10
2018-11-26T15:02:16.173Z,7.10
2018-11-26T15:04:44.690Z,7.10
2018-11-26T15:07:14.266Z,7.00
2018-11-26T15:09:42.667Z,7.10
2018-11-26T15:12:11.148Z,7.10
2018-11-26T15:14:42.295Z,7.00
2018-11-26T15:17:13.121Z,7.00
2018-11-26T15:19:41.678Z,7.00
2018-11-26T15:22:11.310Z,7.00
2018-11-26T15:24:39.748Z,7.10
2018-11-26T15:27:09.286Z,7.10
2018-11-26T15:29:38.802Z,7.10
2018-11-26T15:32:07.586Z,7.00
2018-11-26T15:34:36.300Z,7.00
2018-11-26T15:37:05.353Z,7.00
2018-11-26T15:39:33.839Z,7.00
2018-11-26T15:42:02.237Z,7.00
2018-11-26T15:44:30.575Z,7.00
2018-11-26T15:46:59.204Z,6.90
2018-11-26T15:49:27.648Z,6.90
2018-11-26T15:51:56.638Z,6.90
2018-11-26T15:54:25.100Z,6.90
2018-11-26T15:56:53.518Z,6.90
2018-11-26T15:59:21.898Z,6.90
2018-11-26T16:01:50.304Z,6.90
2018-11-26T16:04:18.752Z,6.90
2018-11-26T16:57:50.736Z,6.60
2018-11-26T17:00:27.887Z,6.60
2018-11-26T17:03:06.783Z,6.70
2018-11-26T17:05:38.727Z,6.70
2018-11-26T17:08:09.037Z,6.70
2018-11-26T17:10:37.447Z,6.60
2018-11-26T17:13:08.879Z,6.60
2018-11-26T17:18:28.055Z,6.70
2018-11-26T17:20:59.783Z,6.60
2018-11-26T17:23:28.166Z,6.60
2018-11-26T17:25:57.050Z,6.60
2018-11-26T17:28:25.653Z,6.60
2018-11-26T17:30:54.124Z,6.60
2018-11-26T17:33:22.556Z,6.60
2018-11-26T17:35:51.238Z,6.50
2018-11-26T17:38:19.839Z,6.50
2018-11-26T17:40:50.349Z,6.50
2018-11-26T17:43:20.353Z,6.50
2018-11-26T17:45:48.843Z,6.50
2018-11-26T17:48:18.339Z,6.40
2018-11-26T17:50:46.869Z,6.40
2018-11-26T17:53:17.680Z,6.50
2018-11-26T17:55:54.033Z,6.40
2018-11-26T17:58:23.885Z,6.50
2018-11-26T18:00:55.999Z,6.40
2018-11-26T18:03:29.408Z,6.40
2018-11-26T18:05:57.855Z,6.40
2018-11-26T18:08:26.359Z,6.30
2018-11-26T18:10:54.813Z,6.30
2018-11-26T18:13:23.218Z,6.30
2018-11-26T18:15:51.606Z,6.30
2018-11-26T18:18:20.516Z,6.30
2018-11-26T18:20:49.081Z,6.30
2018-11-26T18:23:17.469Z,6.30
2018-11-26T18:25:46.025Z,6.30
2018-11-26T18:28:15.727Z,6.20
2018-11-26T18:30:46.553Z,6.20
2018-11-26T18:33:15.301Z,6.20
2018-11-26T18:35:46.396Z,6.20
2018-11-26T18:38:18.249Z,6.20
2018-11-26T18:40:48.319Z,6.20
2018-11-26T18:43:19.905Z,6.20
2018-11-26T18:49:15.947Z,6.20
2018-11-26T18:51:44.707Z,6.20
2018-11-26T18:54:13.133Z,6.10
2018-11-26T18:56:42.315Z,6.20
2018-11-26T18:59:10.908Z,6.20
2018-11-26T19:01:39.371Z,6.20
2018-11-26T19:04:07.822Z,6.20
2018-11-26T19:06:46.497Z,6.10
2018-11-26T19:09:19.410Z,6.10
2018-11-26T19:11:48.411Z,6.10
2018-11-26T19:14:20.054Z,6.10
2018-11-26T19:16:50.075Z,6.10
2018-11-26T19:19:18.575Z,6.20
2018-11-26T19:21:47.167Z,6.10
2018-11-26T19:24:20.542Z,6.10
2018-11-26T19:26:49.051Z,6.10
2018-11-26T19:29:17.457Z,6.10
2018-11-26T19:31:45.871Z,6.10
2018-11-26T19:34:14.269Z,6.00
2018-11-26T19:36:48.193Z,6.00
2018-11-26T19:39:16.976Z,6.00
2018-11-26T19:41:46.163Z,6.00
2018-11-26T19:44:25.791Z,6.00
2018-11-26T19:46:54.798Z,6.00
2018-11-26T19:49:23.283Z,6.00
2018-11-26T20:23:25.796Z,6.00
2018-11-26T20:25:59.885Z,5.90
2018-11-26T20:28:35.637Z,5.60
2018-11-26T20:31:10.595Z,5.60
2018-11-26T20:33:57.755Z,5.70
2018-11-26T20:36:31.061Z,5.60
2018-11-26T20:38:59.943Z,5.70
2018-11-26T20:41:34.181Z,5.70
2018-11-26T20:44:02.833Z,5.70
2018-11-26T20:46:31.344Z,5.80
2018-11-26T20:49:00.307Z,5.80
2018-11-26T20:51:29.323Z,5.80
2018-11-26T20:53:57.766Z,5.80
2018-11-26T20:56:26.209Z,5.80
2018-11-26T21:02:18.797Z,5.80
2018-11-26T21:04:54.033Z,5.80
2018-11-26T21:07:27.373Z,5.80
2018-11-26T21:09:56.869Z,5.80
2018-11-26T21:12:25.349Z,5.80
2018-11-26T21:14:55.465Z,5.80
2018-11-26T21:17:25.238Z,5.80
2018-11-26T21:19:54.097Z,5.80
2018-11-26T21:22:22.721Z,5.80
2018-11-26T21:24:51.999Z,5.90
2018-11-26T21:27:21.465Z,5.90
2018-11-26T21:29:50.622Z,5.90
2018-11-26T21:32:21.045Z,6.00
2018-11-26T21:34:49.569Z,6.00
2018-11-26T21:37:18.080Z,6.00
2018-11-26T21:39:46.614Z,6.00
2018-11-26T21:42:21.082Z,6.00
2018-11-26T21:44:49.673Z,6.10
2018-11-26T22:45:00.838Z,6.10
2018-11-26T22:47:29.220Z,5.70
2018-11-26T22:49:57.630Z,5.70
2018-11-26T22:52:26.072Z,5.70
2018-11-26T22:54:54.474Z,5.70
2018-11-26T22:57:22.881Z,5.70
2018-11-26T22:59:56.792Z,5.70
2018-11-26T23:02:25.266Z,5.70
2018-11-26T23:04:53.701Z,5.70
2018-11-26T23:07:22.113Z,5.70
2018-11-26T23:09:50.507Z,5.70
2018-11-26T23:12:19.020Z,5.60
2018-11-26T23:14:47.439Z,5.70
2018-11-26T23:17:15.925Z,5.70
2018-11-26T23:19:44.406Z,5.60
2018-11-26T23:22:12.884Z,5.60
2018-11-26T23:24:41.401Z,5.60
2018-11-26T23:27:09.797Z,5.60
2018-11-26T23:29:38.161Z,5.60
2018-11-26T23:32:06.635Z,5.60
2018-11-26T23:34:35.059Z,5.60
2018-11-26T23:37:03.466Z,5.60
2018-11-26T23:39:31.866Z,5.60
2018-11-26T23:42:00.253Z,5.60
2018-11-26T23:44:28.657Z,5.70
2018-11-26T23:46:57.036Z,5.60
2018-11-26T23:49:25.366Z,5.60
2018-11-26T23:51:53.831Z,5.60
2018-11-26T23:54:22.376Z,5.60
2018-11-26T23:56:50.916Z,5.70
2018-11-26T23:59:20.323Z,5.70
